Time;durP1;ratioP1;P1;durP2;ratioP2;P2;SDS_P1;SDS_P2;PMS_P1;PMS_P2;Temp;Humidity;BMP_temperature;BMP_pressure;BME280_temperature;BME280_humidity;BME280_pressure;Samples;Min_cycle;Max_cycle;Signal;HPM_P1;HPM_P2
2024/03/19 00:00:12;;;;;;;;;;;;;;;0.64;93.69;96746.48;109973;1281;23166;-84
2024/03/19 00:02:58;;;;;;;;;;;;;;;0.65;93.82;96746.77;109956;1264;124767;-84
2024/03/19 00:05:25;;;;;;;;;;;;;;;0.67;94.04;96746.80;109998;1273;22384;-84
2024/03/19 00:07:51;;;;;;;;;;;;;;;0.69;94.20;96746.86;109695;1280;124543;-84
2024/03/19 00:10:17;;;;;;;;;;;;;;;0.69;94.27;96744.29;108686;1281;22550;-83
2024/03/19 00:12:43;;;;;;;;;;;;;;;0.68;93.83;96744.66;108590;1279;25234;-83
2024/03/19 00:15:10;;;;;;;;;;;;;;;0.65;93.67;96742.54;108515;1280;124808;-84
2024/03/19 00:17:39;;;;;;;;;;;;;;;0.65;93.93;96741.52;108565;1277;25373;-83
2024/03/19 00:20:05;;;;;;;;;;;;;;;0.67;94.37;96740.00;108509;1280;124687;-83
2024/03/19 00:22:32;;;;;;;;;;;;;;;0.67;94.23;96737.63;108555;1281;22559;-84
2024/03/19 00:24:58;;;;;;;;;;;;;;;0.68;94.24;96737.39;108675;1267;22540;-84
2024/03/19 00:27:25;;;;;;;;;;;;;;;0.67;94.24;96739.79;108605;1280;124506;-84
2024/03/19 00:29:52;;;;;;;;;;;;;;;0.68;94.33;96737.38;108670;1280;22562;-83
2024/03/19 00:32:18;;;;;;;;;;;;;;;0.67;94.65;96740.68;108550;1269;124428;-83
2024/03/19 00:34:44;;;;;;;;;;;;;;;0.66;94.83;96741.77;108675;1280;22592;-83
2024/03/19 00:37:11;;;;;;;;;;;;;;;0.65;94.72;96738.60;108749;1279;23962;-83
2024/03/19 00:39:37;;;;;;;;;;;;;;;0.64;94.84;96743.65;108605;1280;124465;-83
2024/03/19 00:42:06;;;;;;;;;;;;;;;0.62;94.83;96743.41;108652;1280;22635;-83
2024/03/19 00:44:32;;;;;;;;;;;;;;;0.61;95.06;96741.79;108565;1280;124636;-87
2024/03/19 00:46:59;;;;;;;;;;;;;;;0.60;94.92;96742.17;108642;1279;23775;-87
2024/03/19 00:49:26;;;;;;;;;;;;;;;0.60;94.87;96739.77;108691;1277;25361;-87
2024/03/19 00:51:53;;;;;;;;;;;;;;;0.59;95.13;96736.95;108535;1281;124280;-87
2024/03/19 00:54:19;;;;;;;;;;;;;;;0.60;95.08;96741.96;108646;1267;22496;-87
2024/03/19 00:56:45;;;;;;;;;;;;;;;0.61;95.00;96745.15;108607;1280;124413;-87
2024/03/19 00:59:12;;;;;;;;;;;;;;;0.62;95.00;96744.44;108725;1274;22531;-87
2024/03/19 01:01:38;;;;;;;;;;;;;;;0.63;95.33;96743.69;108602;1279;124488;-87
2024/03/19 01:04:04;;;;;;;;;;;;;;;0.64;95.30;96747.34;108670;1279;22536;-88
2024/03/19 01:06:37;;;;;;;;;;;;;;;0.65;95.30;96743.89;108664;1280;22506;-87
2024/03/19 01:09:12;;;;;;;;;;;;;;;0.61;94.98;96743.31;108646;1263;124356;-87
2024/03/19 01:11:39;;;;;;;;;;;;;;;0.57;94.86;96742.22;108743;1280;23720;-87
2024/03/19 01:14:05;;;;;;;;;;;;;;;0.55;95.10;96740.79;108554;1279;125036;-87
2024/03/19 01:16:35;;;;;;;;;;;;;;;0.52;95.19;96740.35;108726;1272;22517;-87
2024/03/19 01:19:03;;;;;;;;;;;;;;;0.52;95.54;96737.48;108644;1274;25386;-87
2024/03/19 01:21:29;;;;;;;;;;;;;;;0.52;95.44;96741.38;108543;1274;124371;-88
2024/03/19 01:23:56;;;;;;;;;;;;;;;0.52;95.76;96743.95;108706;1273;22670;-87
2024/03/19 01:26:23;;;;;;;;;;;;;;;0.51;95.70;96746.23;108565;1280;125069;-87
2024/03/19 01:28:49;;;;;;;;;;;;;;;0.51;95.79;96746.06;108710;1273;22482;-87
2024/03/19 01:31:15;;;;;;;;;;;;;;;0.51;95.78;96746.41;108676;1280;22540;-88
2024/03/19 01:33:42;;;;;;;;;;;;;;;0.51;95.95;96742.02;108542;1280;124705;-87
2024/03/19 01:36:08;;;;;;;;;;;;;;;0.50;95.86;96740.34;108644;1270;22464;-87
2024/03/19 01:38:37;;;;;;;;;;;;;;;0.51;96.06;96741.79;108513;1280;124378;-87
2024/03/19 01:41:04;;;;;;;;;;;;;;;0.50;96.01;96742.94;108780;1260;22503;-87
2024/03/19 01:43:30;;;;;;;;;;;;;;;0.50;96.13;96740.54;108531;1269;124650;-86
2024/03/19 01:46:05;;;;;;;;;;;;;;;0.51;96.82;96740.81;108688;1280;22512;-87
2024/03/19 01:48:32;;;;;;;;;;;;;;;0.50;96.57;96741.24;108643;1280;24202;-87
2024/03/19 01:50:59;;;;;;;;;;;;;;;0.48;96.55;96738.97;108566;1268;124483;-88
2024/03/19 01:53:26;;;;;;;;;;;;;;;0.49;96.70;96740.47;108687;1280;22608;-87
2024/03/19 01:55:53;;;;;;;;;;;;;;;0.48;96.72;96740.33;109707;1273;125107;-87
2024/03/19 01:58:20;;;;;;;;;;;;;;;0.48;96.85;96739.66;108621;1280;24201;-87
2024/03/19 02:00:47;;;;;;;;;;;;;;;0.49;97.29;96742.48;108640;1277;22530;-87
2024/03/19 02:03:15;;;;;;;;;;;;;;;0.51;97.14;96743.39;108549;1273;124378;-87
2024/03/19 02:05:42;;;;;;;;;;;;;;;0.50;97.06;96742.06;108671;1280;22506;-87
2024/03/19 02:08:08;;;;;;;;;;;;;;;0.50;97.01;96742.39;108372;1280;125206;-87
2024/03/19 02:10:35;;;;;;;;;;;;;;;0.52;97.34;96741.73;108619;1280;22560;-87
2024/03/19 02:13:01;;;;;;;;;;;;;;;0.53;97.43;96744.58;108634;1280;22507;-87
2024/03/19 02:15:27;;;;;;;;;;;;;;;0.53;97.48;96740.61;108543;1275;124961;-87
2024/03/19 02:17:53;;;;;;;;;;;;;;;0.50;97.39;96738.11;108704;1273;22623;-87
2024/03/19 02:20:20;;;;;;;;;;;;;;;0.52;97.78;96738.84;108610;1262;124382;-87
2024/03/19 02:22:47;;;;;;;;;;;;;;;0.52;97.79;96739.86;108670;1280;22655;-87
2024/03/19 02:25:13;;;;;;;;;;;;;;;0.49;97.72;96739.88;108636;1277;22640;-87
2024/03/19 02:27:40;;;;;;;;;;;;;;;0.49;98.09;96742.66;108591;1280;124570;-87
2024/03/19 02:30:08;;;;;;;;;;;;;;;0.50;98.15;96744.63;108686;1280;25919;-87
2024/03/19 02:32:34;;;;;;;;;;;;;;;0.49;98.01;96745.23;108571;1280;124397;-87
2024/03/19 02:35:01;;;;;;;;;;;;;;;0.47;98.05;96746.89;108718;1276;23943;-87
2024/03/19 02:37:27;;;;;;;;;;;;;;;0.43;98.10;96748.02;108661;1280;22510;-87
2024/03/19 02:39:54;;;;;;;;;;;;;;;0.45;98.49;96750.77;108712;1280;23308;-87
2024/03/19 02:42:20;;;;;;;;;;;;;;;0.46;98.63;96753.09;108725;1280;22756;-87
2024/03/19 02:44:46;;;;;;;;;;;;;;;0.46;98.57;96752.02;108607;1274;124943;-87
2024/03/19 02:47:12;;;;;;;;;;;;;;;0.48;98.85;96753.24;108691;1280;22471;-87
2024/03/19 02:49:39;;;;;;;;;;;;;;;0.50;98.76;96754.66;108601;1275;125086;-83
2024/03/19 02:52:05;;;;;;;;;;;;;;;0.50;98.87;96758.24;108735;1272;24197;-84
2024/03/19 02:54:31;;;;;;;;;;;;;;;0.50;98.99;96760.13;108734;1272;22525;-83
2024/03/19 02:56:58;;;;;;;;;;;;;;;0.47;98.58;96758.77;108527;1272;124372;-84
2024/03/19 02:59:24;;;;;;;;;;;;;;;0.46;98.73;96762.13;108668;1273;23798;-84
2024/03/19 03:01:50;;;;;;;;;;;;;;;0.48;99.00;96766.41;108559;1262;125063;-84
2024/03/19 03:04:17;;;;;;;;;;;;;;;0.50;99.39;96768.00;108663;1273;23860;-84
2024/03/19 03:06:43;;;;;;;;;;;;;;;0.51;99.13;96765.70;108638;1268;22504;-84
2024/03/19 03:09:09;;;;;;;;;;;;;;;0.53;99.24;96760.77;108560;1276;124352;-84
2024/03/19 03:11:36;;;;;;;;;;;;;;;0.54;99.44;96758.95;108671;1263;23711;-84
2024/03/19 03:14:03;;;;;;;;;;;;;;;0.55;99.35;96761.63;108579;1273;125109;-84
2024/03/19 03:16:29;;;;;;;;;;;;;;;0.53;99.13;96761.59;108688;1273;24238;-83
2024/03/19 03:18:56;;;;;;;;;;;;;;;0.53;99.12;96762.48;108613;1280;25280;-84
2024/03/19 03:21:22;;;;;;;;;;;;;;;0.50;98.76;96763.02;108574;1279;124530;-84
2024/03/19 03:23:48;;;;;;;;;;;;;;;0.51;99.03;96761.64;108697;1273;25373;-84
2024/03/19 03:26:15;;;;;;;;;;;;;;;0.50;98.88;96768.48;108591;1279;124500;-84
2024/03/19 03:28:41;;;;;;;;;;;;;;;0.51;99.06;96766.55;108739;1272;22586;-84
2024/03/19 03:31:08;;;;;;;;;;;;;;;0.51;99.08;96770.43;108668;1279;22537;-84
2024/03/19 03:33:34;;;;;;;;;;;;;;;0.49;98.91;96774.20;108670;1280;124616;-84
2024/03/19 03:36:00;;;;;;;;;;;;;;;0.46;98.78;96776.23;108712;1280;22539;-84
2024/03/19 03:38:26;;;;;;;;;;;;;;;0.48;98.99;96776.64;108581;1280;124357;-84
2024/03/19 03:40:53;;;;;;;;;;;;;;;0.46;98.95;96783.05;108638;1260;23255;-83
2024/03/19 03:43:20;;;;;;;;;;;;;;;0.46;98.85;96782.42;108684;1280;22504;-84
2024/03/19 03:45:46;;;;;;;;;;;;;;;0.45;99.15;96782.66;108550;1274;124754;-83
2024/03/19 03:48:12;;;;;;;;;;;;;;;0.45;99.17;96785.16;108686;1280;22496;-84
2024/03/19 03:50:39;;;;;;;;;;;;;;;0.48;99.57;96781.55;108565;1280;124536;-84
2024/03/19 03:53:05;;;;;;;;;;;;;;;0.49;99.50;96790.35;108613;1273;23833;-84
2024/03/19 03:55:31;;;;;;;;;;;;;;;0.50;99.61;96793.40;108584;1268;125163;-84
2024/03/19 03:57:57;;;;;;;;;;;;;;;0.51;99.79;96792.95;108638;1259;22469;-84
2024/03/19 04:00:24;;;;;;;;;;;;;;;0.53;99.55;96797.55;108651;1280;23753;-84
2024/03/19 04:02:51;;;;;;;;;;;;;;;0.54;99.74;96796.48;108608;1277;124376;-83
2024/03/19 04:05:17;;;;;;;;;;;;;;;0.57;99.83;96796.98;108698;1280;23055;-84
2024/03/19 04:07:44;;;;;;;;;;;;;;;0.57;99.63;96802.94;108635;1263;125609;-84
2024/03/19 04:10:14;;;;;;;;;;;;;;;0.53;99.42;96804.88;108731;1265;22601;-84
2024/03/19 04:12:40;;;;;;;;;;;;;;;0.53;99.52;96806.06;108744;1272;22457;-84
2024/03/19 04:15:08;;;;;;;;;;;;;;;0.54;99.43;96807.25;108577;1276;124396;-83
2024/03/19 04:17:34;;;;;;;;;;;;;;;0.50;99.17;96806.50;108665;1262;23972;-84
2024/03/19 04:20:01;;;;;;;;;;;;;;;0.47;99.13;96809.11;108569;1271;125289;-84
2024/03/19 04:22:27;;;;;;;;;;;;;;;0.47;99.55;96808.73;108689;1274;22486;-84
2024/03/19 04:24:53;;;;;;;;;;;;;;;0.46;99.45;96816.48;108709;1280;25248;-84
2024/03/19 04:27:21;;;;;;;;;;;;;;;0.47;99.46;96814.02;108567;1268;124412;-84
2024/03/19 04:29:47;;;;;;;;;;;;;;;0.50;99.87;96817.54;108731;1274;23932;-83
2024/03/19 04:32:13;;;;;;;;;;;;;;;0.50;99.52;96819.63;108562;1278;124624;-83
2024/03/19 04:34:40;;;;;;;;;;;;;;;0.47;99.58;96818.94;108570;1273;22561;-83
2024/03/19 04:37:06;;;;;;;;;;;;;;;0.46;99.57;96821.47;108574;1281;22576;-83
2024/03/19 04:39:32;;;;;;;;;;;;;;;0.45;99.75;96825.75;108452;1280;124456;-83
2024/03/19 04:41:58;;;;;;;;;;;;;;;0.41;99.66;96823.99;108728;1280;22559;-83
2024/03/19 04:44:25;;;;;;;;;;;;;;;0.39;99.79;96826.73;108576;1275;125160;-83
2024/03/19 04:46:52;;;;;;;;;;;;;;;0.40;100.00;96825.66;108687;1279;22510;-83
2024/03/19 04:49:18;;;;;;;;;;;;;;;0.40;99.84;96830.59;108698;1280;22638;-83
2024/03/19 04:51:44;;;;;;;;;;;;;;;0.40;99.99;96830.20;108528;1275;124763;-87
2024/03/19 04:54:10;;;;;;;;;;;;;;;0.44;100.00;96834.55;108669;1280;24858;-86
2024/03/19 04:56:37;;;;;;;;;;;;;;;0.47;100.00;96835.52;108579;1275;124662;-87
2024/03/19 04:59:03;;;;;;;;;;;;;;;0.48;100.00;96836.77;108751;1279;23242;-87
2024/03/19 05:01:29;;;;;;;;;;;;;;;0.51;100.00;96836.74;108610;1272;125232;-87
2024/03/19 05:03:56;;;;;;;;;;;;;;;0.47;99.96;96840.98;108704;1280;22528;-87
2024/03/19 05:06:22;;;;;;;;;;;;;;;0.45;100.00;96845.34;108704;1273;24217;-87
2024/03/19 05:08:48;;;;;;;;;;;;;;;0.48;100.00;96848.90;108599;1280;124689;-87
2024/03/19 05:11:15;;;;;;;;;;;;;;;0.48;100.00;96850.61;108665;1280;24305;-87
2024/03/19 05:13:41;;;;;;;;;;;;;;;0.49;100.00;96851.06;108627;1280;125228;-87
2024/03/19 05:16:07;;;;;;;;;;;;;;;0.50;100.00;96853.39;108670;1277;22467;-87
2024/03/19 05:18:33;;;;;;;;;;;;;;;0.53;100.00;96854.16;108652;1273;25192;-87
2024/03/19 05:21:00;;;;;;;;;;;;;;;0.56;100.00;96856.00;108594;1280;124554;-87
2024/03/19 05:23:26;;;;;;;;;;;;;;;0.58;100.00;96857.75;108707;1277;22513;-87
2024/03/19 05:25:53;;;;;;;;;;;;;;;0.56;100.00;96859.05;108606;1280;125431;-87
2024/03/19 05:28:19;;;;;;;;;;;;;;;0.54;100.00;96862.14;108685;1272;25387;-87
2024/03/19 05:30:46;;;;;;;;;;;;;;;0.55;100.00;96862.34;108671;1278;22815;-87
2024/03/19 05:33:13;;;;;;;;;;;;;;;0.55;100.00;96860.35;108558;1280;124924;-86
2024/03/19 05:35:39;;;;;;;;;;;;;;;0.53;100.00;96860.85;108680;1280;22639;-87
2024/03/19 05:38:05;;;;;;;;;;;;;;;0.51;100.00;96867.33;108472;1280;125432;-87
2024/03/19 05:40:32;;;;;;;;;;;;;;;0.51;100.00;96865.91;108690;1275;23284;-86
2024/03/19 05:42:58;;;;;;;;;;;;;;;0.54;100.00;96868.23;108568;1280;22531;-87
2024/03/19 05:45:25;;;;;;;;;;;;;;;0.54;100.00;96869.77;108578;1275;125195;-87
2024/03/19 05:47:51;;;;;;;;;;;;;;;0.51;100.00;96875.83;108616;1275;22519;-87
2024/03/19 05:50:18;;;;;;;;;;;;;;;0.47;100.00;96874.00;108562;1280;124808;-87
2024/03/19 05:52:44;;;;;;;;;;;;;;;0.46;100.00;96873.92;108677;1280;23911;-87
2024/03/19 05:55:10;;;;;;;;;;;;;;;0.45;100.00;96876.77;108680;1275;22527;-87
2024/03/19 05:57:36;;;;;;;;;;;;;;;0.49;100.00;96881.09;108636;1273;125264;-87
2024/03/19 06:00:07;;;;;;;;;;;;;;;0.51;100.00;96882.27;108707;1279;23681;-87
2024/03/19 06:02:33;;;;;;;;;;;;;;;0.51;100.00;96883.45;108650;1280;125022;-88
2024/03/19 06:04:59;;;;;;;;;;;;;;;0.51;100.00;96885.88;108781;1272;22603;-87
2024/03/19 06:07:26;;;;;;;;;;;;;;;0.51;100.00;96882.44;108735;1277;22640;-87
2024/03/19 06:09:52;;;;;;;;;;;;;;;0.49;100.00;96886.87;108656;1272;124930;-87
2024/03/19 06:12:18;;;;;;;;;;;;;;;0.49;100.00;96888.21;108762;1272;22500;-84
2024/03/19 06:14:44;;;;;;;;;;;;;;;0.46;100.00;96887.02;108613;1272;124925;-84
2024/03/19 06:17:11;;;;;;;;;;;;;;;0.46;100.00;96887.20;108631;1275;22559;-84
2024/03/19 06:19:37;;;;;;;;;;;;;;;0.52;100.00;96888.89;108563;1280;125133;-84
2024/03/19 06:22:03;;;;;;;;;;;;;;;0.53;100.00;96888.82;108654;1273;22526;-84
2024/03/19 06:24:29;;;;;;;;;;;;;;;0.51;100.00;96888.26;108646;1280;22503;-84
2024/03/19 06:26:58;;;;;;;;;;;;;;;0.47;100.00;96890.36;108518;1280;124879;-84
2024/03/19 06:29:24;;;;;;;;;;;;;;;0.44;100.00;96891.95;108666;1280;22510;-84
2024/03/19 06:31:50;;;;;;;;;;;;;;;0.39;100.00;96897.08;108545;1272;124713;-84
2024/03/19 06:34:16;;;;;;;;;;;;;;;0.37;100.00;96896.02;108654;1279;24220;-84
2024/03/19 06:36:43;;;;;;;;;;;;;;;0.38;100.00;96897.16;108673;1279;22658;-84
2024/03/19 06:39:09;;;;;;;;;;;;;;;0.40;100.00;96899.91;108636;1280;125067;-84
2024/03/19 06:41:35;;;;;;;;;;;;;;;0.42;100.00;96903.89;108679;1273;22625;-84
2024/03/19 06:44:01;;;;;;;;;;;;;;;0.45;100.00;96904.18;108525;1275;125070;-84
2024/03/19 06:46:28;;;;;;;;;;;;;;;0.46;100.00;96908.52;108629;1275;25185;-84
2024/03/19 06:48:54;;;;;;;;;;;;;;;0.49;100.00;96906.94;108716;1275;22542;-84
2024/03/19 06:51:20;;;;;;;;;;;;;;;0.55;100.00;96908.38;108522;1280;125045;-84
2024/03/19 06:53:46;;;;;;;;;;;;;;;0.60;100.00;96910.95;108739;1280;22525;-84
2024/03/19 06:56:13;;;;;;;;;;;;;;;0.60;100.00;96915.53;108635;1276;125329;-84
2024/03/19 06:58:43;;;;;;;;;;;;;;;0.58;100.00;96918.25;108686;1278;22499;-84
2024/03/19 07:01:10;;;;;;;;;;;;;;;0.60;100.00;96921.72;108675;1278;22459;-85
2024/03/19 07:03:37;;;;;;;;;;;;;;;0.64;100.00;96919.87;108586;1280;125060;-84
2024/03/19 07:06:21;;;;;;;;;;;;;;;0.66;100.00;96924.56;108661;1280;22533;-84
2024/03/19 07:09:08;;;;;;;;;;;;;;;0.64;100.00;96923.98;108562;1279;124903;-84
2024/03/19 07:11:36;;;;;;;;;;;;;;;0.65;100.00;96926.98;108685;1272;23265;-83
2024/03/19 07:14:04;;;;;;;;;;;;;;;0.69;100.00;96925.73;108661;1272;124731;-85
2024/03/19 07:16:34;;;;;;;;;;;;;;;0.69;100.00;96927.92;108648;1275;22514;-86
2024/03/19 07:19:00;;;;;;;;;;;;;;;0.75;100.00;96930.04;108607;1275;22609;-86
2024/03/19 07:21:27;;;;;;;;;;;;;;;0.79;100.00;96929.75;108566;1275;125025;-86
2024/03/19 07:23:53;;;;;;;;;;;;;;;0.81;100.00;96934.56;108653;1275;23304;-86
2024/03/19 07:26:20;;;;;;;;;;;;;;;0.85;100.00;96937.85;108619;1272;124612;-86
2024/03/19 07:28:47;;;;;;;;;;;;;;;0.81;100.00;96941.69;108691;1275;22913;-86
2024/03/19 07:31:13;;;;;;;;;;;;;;;0.84;100.00;96942.89;108707;1280;22906;-86
2024/03/19 07:33:46;;;;;;;;;;;;;;;0.85;100.00;96943.98;108640;1274;125088;-86
2024/03/19 07:36:31;;;;;;;;;;;;;;;0.89;100.00;96946.09;109956;1281;23324;-87
2024/03/19 07:38:57;;;;;;;;;;;;;;;0.98;100.00;96944.98;109732;1277;124584;-86
2024/03/19 07:41:23;;;;;;;;;;;;;;;1.03;100.00;96950.25;109838;1281;22422;-86
2024/03/19 07:43:49;;;;;;;;;;;;;;;1.02;100.00;96953.19;109777;1282;124701;-86
2024/03/19 07:46:16;;;;;;;;;;;;;;;1.01;100.00;96956.55;109876;1282;23250;-86
2024/03/19 07:48:43;;;;;;;;;;;;;;;1.02;100.00;96958.02;109910;1275;22400;-87
2024/03/19 07:51:09;;;;;;;;;;;;;;;1.07;100.00;96963.22;109795;1277;124518;-87
2024/03/19 07:53:36;;;;;;;;;;;;;;;1.11;100.00;96963.09;109860;1276;23296;-87
2024/03/19 07:56:02;;;;;;;;;;;;;;;1.17;100.00;96965.10;109856;1281;124779;-87
2024/03/19 07:58:29;;;;;;;;;;;;;;;1.18;100.00;96968.77;109903;1275;22384;-87
2024/03/19 08:00:55;;;;;;;;;;;;;;;1.18;100.00;96971.14;109904;1275;22506;-87
2024/03/19 08:03:21;;;;;;;;;;;;;;;1.17;100.00;96975.48;109793;1278;124725;-87
2024/03/19 08:05:56;;;;;;;;;;;;;;;1.15;100.00;96974.96;109910;1282;22401;-87
2024/03/19 08:08:22;;;;;;;;;;;;;;;1.19;100.00;96974.66;109151;1280;124985;-85
2024/03/19 08:10:48;;;;;;;;;;;;;;;1.29;100.00;96978.05;108722;1280;22646;-86
2024/03/19 08:13:15;;;;;;;;;;;;;;;1.37;100.00;96977.11;108711;1280;22525;-86
2024/03/19 08:15:41;;;;;;;;;;;;;;;1.41;100.00;96981.45;108631;1280;124519;-86
2024/03/19 08:18:08;;;;;;;;;;;;;;;1.40;100.00;96984.92;108701;1280;22459;-86
2024/03/19 08:20:35;;;;;;;;;;;;;;;1.42;100.00;96984.65;108567;1274;124652;-86
2024/03/19 08:23:02;;;;;;;;;;;;;;;1.44;100.00;96987.52;108733;1272;22510;-86
2024/03/19 08:25:29;;;;;;;;;;;;;;;1.48;100.00;96990.38;108697;1270;23822;-86
2024/03/19 08:27:56;;;;;;;;;;;;;;;1.50;100.00;96987.79;108729;1280;22543;-86
2024/03/19 08:30:23;;;;;;;;;;;;;;;1.50;100.00;96990.38;108746;1280;22529;-86
2024/03/19 08:32:49;;;;;;;;;;;;;;;1.49;99.64;96989.75;108568;1278;124578;-86
2024/03/19 08:35:16;;;;;;;;;;;;;;;1.51;99.81;96987.92;108690;1280;22516;-86
2024/03/19 08:37:43;;;;;;;;;;;;;;;1.54;99.77;96989.91;108632;1273;124560;-85
2024/03/19 08:40:11;;;;;;;;;;;;;;;1.59;99.28;96992.79;108622;1280;23235;-86
2024/03/19 08:42:37;;;;;;;;;;;;;;;1.61;99.07;96991.23;108693;1273;22582;-86
2024/03/19 08:45:04;;;;;;;;;;;;;;;1.67;99.28;96992.71;108606;1280;124402;-86
2024/03/19 08:47:30;;;;;;;;;;;;;;;1.69;97.78;96994.27;108728;1280;24202;-86
2024/03/19 08:49:56;;;;;;;;;;;;;;;1.72;98.34;96992.53;108600;1272;124553;-86
2024/03/19 08:52:23;;;;;;;;;;;;;;;1.75;97.72;96995.17;108740;1280;22521;-86
2024/03/19 08:54:49;;;;;;;;;;;;;;;1.81;98.33;96997.65;108735;1280;22528;-86
2024/03/19 08:57:16;;;;;;;;;;;;;;;1.88;98.51;96993.26;108676;1280;124376;-86
2024/03/19 08:59:42;;;;;;;;;;;;;;;1.99;99.06;96997.02;108811;1272;22547;-86
2024/03/19 09:02:09;;;;;;;;;;;;;;;2.07;96.99;97000.70;108646;1276;124621;-86
2024/03/19 09:04:35;;;;;;;;;;;;;;;2.11;96.79;97000.73;108658;1262;22734;-86
2024/03/19 09:07:01;;;;;;;;;;;;;;;2.18;96.23;96998.67;108679;1275;22554;-86
2024/03/19 09:09:27;;;;;;;;;;;;;;;2.30;95.99;96995.88;108559;1281;124363;-86
2024/03/19 09:11:54;;;;;;;;;;;;;;;2.42;92.15;97000.09;108740;1278;22479;-87
2024/03/19 09:14:20;;;;;;;;;;;;;;;2.51;92.24;96996.55;108525;1280;124681;-86
2024/03/19 09:20:12;;;;;;;;;;;;;;;2.77;92.23;96998.12;108620;1280;124570;-84
2024/03/19 09:22:39;;;;;;;;;;;;;;;2.85;91.49;97000.54;108739;1280;25002;-83
2024/03/19 09:25:07;;;;;;;;;;;;;;;2.88;89.00;97002.73;108651;1275;22515;-83
2024/03/19 09:27:33;;;;;;;;;;;;;;;2.87;88.77;97007.71;108597;1275;124657;-83
2024/03/19 09:30:00;;;;;;;;;;;;;;;2.84;87.63;97008.98;108653;1280;22560;-83
2024/03/19 09:32:26;;;;;;;;;;;;;;;2.84;88.36;97009.73;108666;1280;124394;-83
2024/03/19 09:34:52;;;;;;;;;;;;;;;2.85;87.14;97012.83;108753;1275;22703;-83
2024/03/19 09:37:19;;;;;;;;;;;;;;;2.87;87.42;97015.49;108734;1280;22519;-83
2024/03/19 09:39:45;;;;;;;;;;;;;;;2.90;85.59;97015.90;108462;1277;182736;-83
2024/03/19 09:42:16;;;;;;;;;;;;;;;2.91;86.24;97016.36;108651;1280;22474;-83
2024/03/19 09:44:42;;;;;;;;;;;;;;;2.97;87.30;97015.20;108548;1275;124536;-83
2024/03/19 09:47:37;;;;;;;;;;;;;;;3.02;86.71;97021.12;108737;1262;22501;-83
2024/03/19 09:50:06;;;;;;;;;;;;;;;3.07;86.37;97021.41;108598;1268;124604;-83
2024/03/19 09:52:33;;;;;;;;;;;;;;;3.11;84.78;97023.33;108614;1280;23264;-83
2024/03/19 09:55:00;;;;;;;;;;;;;;;3.13;85.23;97027.16;108689;1280;23895;-84
2024/03/19 09:57:26;;;;;;;;;;;;;;;3.16;84.33;97030.98;108520;1280;124382;-84
2024/03/19 09:59:57;;;;;;;;;;;;;;;3.14;80.95;97030.81;108665;1275;22519;-84
2024/03/19 10:02:23;;;;;;;;;;;;;;;3.09;82.31;97024.88;108655;1280;124123;-84
2024/03/19 10:04:50;;;;;;;;;;;;;;;3.15;83.34;97027.34;108731;1280;25241;-84
2024/03/19 10:07:16;;;;;;;;;;;;;;;3.24;83.38;97031.59;108714;1278;22922;-84
2024/03/19 10:09:44;;;;;;;;;;;;;;;3.27;81.76;97029.09;108568;1275;124050;-84
2024/03/19 10:12:11;;;;;;;;;;;;;;;3.28;81.61;97028.15;108779;1280;25467;-83
2024/03/19 10:14:37;;;;;;;;;;;;;;;3.34;82.12;97025.84;108539;1280;124471;-84
2024/03/19 10:17:04;;;;;;;;;;;;;;;3.36;80.51;97027.34;108784;1272;22507;-84
2024/03/19 10:19:30;;;;;;;;;;;;;;;3.39;82.42;97028.31;108676;1272;124570;-84
2024/03/19 10:21:58;;;;;;;;;;;;;;;3.46;81.87;97029.69;108706;1280;23144;-84
2024/03/19 10:24:24;;;;;;;;;;;;;;;3.50;81.33;97026.26;108776;1275;22486;-84
2024/03/19 10:26:53;;;;;;;;;;;;;;;3.58;80.16;97024.60;108648;1280;124408;-84
2024/03/19 10:29:19;;;;;;;;;;;;;;;3.66;80.67;97027.77;108669;1280;22574;-84
2024/03/19 10:31:46;;;;;;;;;;;;;;;3.76;80.75;97024.90;108583;1280;124693;-84
2024/03/19 10:34:16;;;;;;;;;;;;;;;3.85;83.13;97028.36;108666;1275;25089;-84
2024/03/19 10:36:42;;;;;;;;;;;;;;;3.86;78.23;97032.96;108642;1280;22540;-84
2024/03/19 10:39:09;;;;;;;;;;;;;;;3.77;78.97;97035.95;108714;1272;124400;-84
2024/03/19 10:41:36;;;;;;;;;;;;;;;3.75;81.02;97036.77;108827;1280;23017;-84
2024/03/19 10:44:02;;;;;;;;;;;;;;;3.81;81.89;97036.95;108706;1280;124976;-84
2024/03/19 10:46:29;;;;;;;;;;;;;;;3.90;81.74;97038.64;108660;1280;24283;-84
2024/03/19 10:48:55;;;;;;;;;;;;;;;3.95;81.80;97037.04;108845;1280;22909;-84
2024/03/19 10:51:23;;;;;;;;;;;;;;;3.94;77.48;97038.60;108701;1280;124428;-84
2024/03/19 10:53:49;;;;;;;;;;;;;;;3.83;79.38;97035.10;108711;1280;22500;-84
2024/03/19 10:56:15;;;;;;;;;;;;;;;3.79;78.23;97041.79;108676;1278;124846;-83
2024/03/19 10:58:41;;;;;;;;;;;;;;;3.78;79.79;97038.75;108669;1280;22977;-84
2024/03/19 11:01:11;;;;;;;;;;;;;;;3.82;80.35;97040.48;108713;1280;22432;-87
2024/03/19 11:03:39;;;;;;;;;;;;;;;3.87;79.16;97040.70;108573;1275;124428;-87
2024/03/19 11:06:08;;;;;;;;;;;;;;;3.88;78.80;97044.09;108639;1278;23843;-86
2024/03/19 11:08:37;;;;;;;;;;;;;;;3.86;78.68;97041.84;108639;1280;124364;-86
2024/03/19 11:11:07;;;;;;;;;;;;;;;3.90;78.75;97041.19;108704;1280;22545;-86
2024/03/19 11:13:34;;;;;;;;;;;;;;;3.94;78.40;97040.20;108543;1280;124698;-86
2024/03/19 11:16:00;;;;;;;;;;;;;;;3.99;78.52;97043.06;108676;1280;22964;-86
2024/03/19 11:18:28;;;;;;;;;;;;;;;4.04;79.00;97041.60;108731;1280;22517;-86
2024/03/19 11:20:56;;;;;;;;;;;;;;;4.06;77.49;97046.60;108652;1280;124434;-86
2024/03/19 11:23:23;;;;;;;;;;;;;;;4.02;77.20;97044.63;108714;1268;23866;-86
2024/03/19 11:25:50;;;;;;;;;;;;;;;3.98;76.02;97045.33;108568;1280;124705;-86
2024/03/19 11:28:22;;;;;;;;;;;;;;;3.93;77.02;97044.39;108815;1272;22550;-86
2024/03/19 11:30:54;;;;;;;;;;;;;;;3.90;76.89;97043.20;108820;1272;22524;-86
2024/03/19 11:33:21;;;;;;;;;;;;;;;3.89;76.76;97045.21;108672;1279;124502;-86
2024/03/19 11:35:47;;;;;;;;;;;;;;;3.90;76.34;97044.75;108699;1278;22629;-86
2024/03/19 11:38:17;;;;;;;;;;;;;;;3.90;76.74;97045.65;108682;1280;124580;-85
2024/03/19 11:40:44;;;;;;;;;;;;;;;3.91;76.31;97046.64;108803;1273;24723;-86
2024/03/19 11:43:11;;;;;;;;;;;;;;;3.86;76.71;97048.02;108696;1278;22830;-86
2024/03/19 11:45:37;;;;;;;;;;;;;;;3.88;77.18;97042.68;108542;1280;124874;-86
2024/03/19 11:48:05;;;;;;;;;;;;;;;3.93;76.50;97042.20;108812;1274;22504;-86
2024/03/19 11:50:31;;;;;;;;;;;;;;;3.91;76.25;97042.13;108547;1275;124506;-86
2024/03/19 11:52:58;;;;;;;;;;;;;;;4.00;76.34;97034.70;108685;1275;23614;-86
2024/03/19 11:55:24;;;;;;;;;;;;;;;4.10;77.11;97029.97;108634;1275;24321;-86
2024/03/19 11:57:51;;;;;;;;;;;;;;;4.21;77.01;97028.69;108661;1275;124483;-86
2024/03/19 12:00:17;;;;;;;;;;;;;;;4.25;75.91;97028.04;108741;1276;24715;-87
2024/03/19 12:02:43;;;;;;;;;;;;;;;4.31;75.89;97026.68;108619;1262;124426;-86
2024/03/19 12:05:11;;;;;;;;;;;;;;;4.36;76.04;97018.67;108723;1280;22457;-86
2024/03/19 12:07:37;;;;;;;;;;;;;;;4.45;76.49;97017.14;108535;1275;124620;-87
2024/03/19 12:10:17;;;;;;;;;;;;;;;4.54;77.04;97016.55;108650;1280;22473;-87
2024/03/19 12:12:43;;;;;;;;;;;;;;;4.69;77.19;97014.38;108657;1280;24897;-87
2024/03/19 12:15:10;;;;;;;;;;;;;;;4.79;77.54;97016.07;108575;1280;124617;-86
2024/03/19 12:17:36;;;;;;;;;;;;;;;4.89;75.87;97012.58;108648;1277;22531;-87
2024/03/19 12:20:05;;;;;;;;;;;;;;;4.94;75.83;97015.55;108505;1279;124623;-86
2024/03/19 12:22:31;;;;;;;;;;;;;;;4.92;74.17;97017.80;108646;1280;25273;-86
2024/03/19 12:24:57;;;;;;;;;;;;;;;4.83;74.54;97016.48;108638;1280;23221;-86
2024/03/19 12:27:24;;;;;;;;;;;;;;;4.79;74.74;97018.02;108657;1278;124420;-86
2024/03/19 12:29:50;;;;;;;;;;;;;;;4.71;73.78;97021.77;108645;1280;25312;-85
2024/03/19 12:32:36;;;;;;;;;;;;;;;4.60;73.18;97025.29;108580;1277;124490;-85
2024/03/19 12:35:13;;;;;;;;;;;;;;;4.54;74.09;97028.52;108786;1273;23848;-85
2024/03/19 12:37:39;;;;;;;;;;;;;;;4.50;74.09;97024.52;108601;1273;124536;-85
2024/03/19 12:40:11;;;;;;;;;;;;;;;4.51;74.46;97024.60;108701;1280;22564;-85
2024/03/19 12:42:37;;;;;;;;;;;;;;;4.57;74.14;97025.02;108674;1278;22532;-85